sensor_id;sensor_type;location;lat;lon;timestamp;pressure;altitude;pressure_sealevel;temperature;humidity
64460;BME280;50828;53.756;21.140;2023-05-29T00:04:44;100178.81;;;10.11;49.75
64460;BME280;50828;53.756;21.140;2023-05-29T00:09:52;100176.53;;;10.16;50.10
64460;BME280;50828;53.756;21.140;2023-05-29T00:15:02;100183.73;;;10.21;49.83
64460;BME280;50828;53.756;21.140;2023-05-29T00:20:12;100183.63;;;10.24;49.62
64460;BME280;50828;53.756;21.140;2023-05-29T00:25:21;100182.37;;;10.24;49.35
64460;BME280;50828;53.756;21.140;2023-05-29T00:30:29;100175.25;;;10.22;49.57
64460;BME280;50828;53.756;21.140;2023-05-29T00:35:38;100176.02;;;10.16;49.25
64460;BME280;50828;53.756;21.140;2023-05-29T00:40:46;100171.77;;;10.07;49.20
64460;BME280;50828;53.756;21.140;2023-05-29T00:45:54;100170.55;;;9.97;49.12
64460;BME280;50828;53.756;21.140;2023-05-29T00:51:03;100167.11;;;9.85;48.94
64460;BME280;50828;53.756;21.140;2023-05-29T00:56:14;100173.13;;;9.74;48.85
64460;BME280;50828;53.756;21.140;2023-05-29T01:01:22;100175.66;;;9.62;49.18
64460;BME280;50828;53.756;21.140;2023-05-29T01:06:30;100183.27;;;9.51;49.57
64460;BME280;50828;53.756;21.140;2023-05-29T01:11:49;100181.88;;;9.40;49.64
64460;BME280;50828;53.756;21.140;2023-05-29T01:17:03;100183.80;;;9.30;49.93
64460;BME280;50828;53.756;21.140;2023-05-29T01:22:16;100181.48;;;9.21;50.51
64460;BME280;50828;53.756;21.140;2023-05-29T01:27:33;100177.56;;;9.11;50.29
64460;BME280;50828;53.756;21.140;2023-05-29T01:32:43;100174.73;;;9.01;50.27
64460;BME280;50828;53.756;21.140;2023-05-29T01:37:53;100174.16;;;8.92;50.37
64460;BME280;50828;53.756;21.140;2023-05-29T01:43:03;100177.31;;;8.81;50.55
64460;BME280;50828;53.756;21.140;2023-05-29T01:48:11;100178.84;;;8.72;50.48
64460;BME280;50828;53.756;21.140;2023-05-29T01:53:20;100176.87;;;8.62;50.67
64460;BME280;50828;53.756;21.140;2023-05-29T01:58:29;100170.17;;;8.51;50.37
64460;BME280;50828;53.756;21.140;2023-05-29T02:03:38;100174.16;;;8.41;50.95
64460;BME280;50828;53.756;21.140;2023-05-29T02:08:46;100172.88;;;8.30;51.40
64460;BME280;50828;53.756;21.140;2023-05-29T02:13:54;100165.42;;;8.21;51.55
64460;BME280;50828;53.756;21.140;2023-05-29T02:19:03;100159.69;;;8.13;51.42
64460;BME280;50828;53.756;21.140;2023-05-29T02:24:13;100160.31;;;8.04;51.57
64460;BME280;50828;53.756;21.140;2023-05-29T02:29:20;100159.53;;;7.94;51.58
64460;BME280;50828;53.756;21.140;2023-05-29T02:34:28;100156.47;;;7.85;51.74
64460;BME280;50828;53.756;21.140;2023-05-29T02:39:36;100152.14;;;7.76;51.90
64460;BME280;50828;53.756;21.140;2023-05-29T02:44:45;100145.39;;;7.67;52.12
64460;BME280;50828;53.756;21.140;2023-05-29T02:49:57;100142.97;;;7.60;53.04
64460;BME280;50828;53.756;21.140;2023-05-29T02:55:06;100140.52;;;7.53;53.51
64460;BME280;50828;53.756;21.140;2023-05-29T03:00:15;100139.63;;;7.47;53.99
64460;BME280;50828;53.756;21.140;2023-05-29T03:05:25;100143.27;;;7.43;54.19
64460;BME280;50828;53.756;21.140;2023-05-29T03:10:33;100151.08;;;7.39;54.49
64460;BME280;50828;53.756;21.140;2023-05-29T03:15:42;100147.79;;;7.36;54.32
64460;BME280;50828;53.756;21.140;2023-05-29T03:20:51;100149.23;;;7.35;54.59
64460;BME280;50828;53.756;21.140;2023-05-29T03:25:59;100152.70;;;7.36;54.75
64460;BME280;50828;53.756;21.140;2023-05-29T03:31:08;100155.63;;;7.39;55.27
64460;BME280;50828;53.756;21.140;2023-05-29T03:36:16;100156.70;;;7.44;55.62
64460;BME280;50828;53.756;21.140;2023-05-29T03:41:25;100154.27;;;7.57;55.91
64460;BME280;50828;53.756;21.140;2023-05-29T03:46:33;100159.67;;;7.76;56.39
64460;BME280;50828;53.756;21.140;2023-05-29T03:51:43;100159.92;;;7.99;56.18
64460;BME280;50828;53.756;21.140;2023-05-29T03:56:51;100164.02;;;8.27;56.10
64460;BME280;50828;53.756;21.140;2023-05-29T04:01:59;100157.98;;;8.59;56.12
64460;BME280;50828;53.756;21.140;2023-05-29T04:07:08;100162.55;;;8.93;56.15
64460;BME280;50828;53.756;21.140;2023-05-29T04:12:16;100167.92;;;9.26;55.89
64460;BME280;50828;53.756;21.140;2023-05-29T04:17:25;100163.63;;;9.59;55.74
64460;BME280;50828;53.756;21.140;2023-05-29T04:22:33;100159.68;;;9.91;55.75
64460;BME280;50828;53.756;21.140;2023-05-29T04:27:42;100165.70;;;10.23;55.51
64460;BME280;50828;53.756;21.140;2023-05-29T04:32:56;100168.42;;;10.58;55.19
64460;BME280;50828;53.756;21.140;2023-05-29T04:38:06;100169.83;;;10.94;55.20
64460;BME280;50828;53.756;21.140;2023-05-29T04:43:15;100167.45;;;11.30;54.82
64460;BME280;50828;53.756;21.140;2023-05-29T04:48:40;100167.47;;;11.67;54.65
64460;BME280;50828;53.756;21.140;2023-05-29T04:53:53;100171.21;;;12.02;54.48
64460;BME280;50828;53.756;21.140;2023-05-29T04:59:00;100172.91;;;12.38;54.18
64460;BME280;50828;53.756;21.140;2023-05-29T05:04:08;100172.90;;;12.72;53.97
64460;BME280;50828;53.756;21.140;2023-05-29T05:09:16;100176.23;;;13.06;53.41
64460;BME280;50828;53.756;21.140;2023-05-29T05:14:25;100173.38;;;13.42;53.41
64460;BME280;50828;53.756;21.140;2023-05-29T05:19:35;100166.89;;;13.79;53.20
64460;BME280;50828;53.756;21.140;2023-05-29T05:24:45;100174.83;;;14.16;52.98
64460;BME280;50828;53.756;21.140;2023-05-29T05:29:52;100175.50;;;14.53;52.61
64460;BME280;50828;53.756;21.140;2023-05-29T05:35:02;100172.35;;;14.90;52.36
64460;BME280;50828;53.756;21.140;2023-05-29T05:40:12;100166.84;;;15.27;51.89
64460;BME280;50828;53.756;21.140;2023-05-29T05:45:28;100170.48;;;15.67;51.40
64460;BME280;50828;53.756;21.140;2023-05-29T05:50:36;100171.09;;;16.10;50.85
64460;BME280;50828;53.756;21.140;2023-05-29T05:55:45;100174.45;;;16.53;50.35
64460;BME280;50828;53.756;21.140;2023-05-29T06:00:53;100171.31;;;16.94;49.58
64460;BME280;50828;53.756;21.140;2023-05-29T06:06:03;100173.88;;;17.30;48.74
64460;BME280;50828;53.756;21.140;2023-05-29T06:11:12;100167.33;;;17.53;47.82
64460;BME280;50828;53.756;21.140;2023-05-29T06:16:22;100162.50;;;17.69;47.00
64460;BME280;50828;53.756;21.140;2023-05-29T06:21:31;100157.25;;;17.78;46.52
64460;BME280;50828;53.756;21.140;2023-05-29T06:26:40;100159.78;;;17.86;46.06
64460;BME280;50828;53.756;21.140;2023-05-29T06:31:50;100166.41;;;17.93;45.82
64460;BME280;50828;53.756;21.140;2023-05-29T06:36:59;100170.59;;;18.02;45.35
64460;BME280;50828;53.756;21.140;2023-05-29T06:42:07;100173.84;;;18.12;45.14
64460;BME280;50828;53.756;21.140;2023-05-29T06:47:20;100179.09;;;18.23;44.80
64460;BME280;50828;53.756;21.140;2023-05-29T06:52:29;100176.53;;;18.31;44.29
64460;BME280;50828;53.756;21.140;2023-05-29T06:58:03;100172.20;;;18.37;43.85
64460;BME280;50828;53.756;21.140;2023-05-29T07:03:12;100177.86;;;18.43;43.76
64460;BME280;50828;53.756;21.140;2023-05-29T07:08:22;100176.11;;;18.47;43.39
64460;BME280;50828;53.756;21.140;2023-05-29T07:13:31;100178.65;;;18.51;43.20
64460;BME280;50828;53.756;21.140;2023-05-29T07:18:40;100184.30;;;18.52;42.98
64460;BME280;50828;53.756;21.140;2023-05-29T07:23:50;100177.89;;;18.52;43.29
64460;BME280;50828;53.756;21.140;2023-05-29T07:28:59;100187.23;;;18.57;43.30
64460;BME280;50828;53.756;21.140;2023-05-29T07:34:10;100187.39;;;18.64;43.22
64460;BME280;50828;53.756;21.140;2023-05-29T07:39:18;100187.14;;;18.85;43.17
64460;BME280;50828;53.756;21.140;2023-05-29T07:44:27;100180.69;;;19.09;42.99
64460;BME280;50828;53.756;21.140;2023-05-29T07:49:36;100179.05;;;19.29;42.36
64460;BME280;50828;53.756;21.140;2023-05-29T07:54:45;100180.95;;;19.44;41.78
64460;BME280;50828;53.756;21.140;2023-05-29T07:59:54;100181.97;;;19.54;41.22
64460;BME280;50828;53.756;21.140;2023-05-29T08:05:04;100187.73;;;19.63;40.53
64460;BME280;50828;53.756;21.140;2023-05-29T08:10:15;100190.00;;;19.75;40.38
64460;BME280;50828;53.756;21.140;2023-05-29T08:15:27;100193.52;;;19.92;40.15
64460;BME280;50828;53.756;21.140;2023-05-29T08:20:35;100193.39;;;20.10;39.92
64460;BME280;50828;53.756;21.140;2023-05-29T08:25:44;100201.29;;;20.34;40.10
64460;BME280;50828;53.756;21.140;2023-05-29T08:30:53;100202.39;;;20.61;39.51
64460;BME280;50828;53.756;21.140;2023-05-29T08:36:02;100206.44;;;20.82;38.65
64460;BME280;50828;53.756;21.140;2023-05-29T08:41:09;100204.89;;;20.93;38.24
64460;BME280;50828;53.756;21.140;2023-05-29T08:46:20;100204.63;;;20.96;38.28
64460;BME280;50828;53.756;21.140;2023-05-29T08:51:32;100201.59;;;20.96;38.19
64460;BME280;50828;53.756;21.140;2023-05-29T08:56:44;100199.80;;;20.96;37.94
64460;BME280;50828;53.756;21.140;2023-05-29T09:01:52;100203.09;;;20.95;37.94
64460;BME280;50828;53.756;21.140;2023-05-29T09:07:00;100203.23;;;20.93;37.85
64460;BME280;50828;53.756;21.140;2023-05-29T09:12:09;100204.08;;;20.94;37.92
64460;BME280;50828;53.756;21.140;2023-05-29T09:17:16;100201.77;;;20.96;38.05
64460;BME280;50828;53.756;21.140;2023-05-29T09:22:25;100193.17;;;21.02;38.07
64460;BME280;50828;53.756;21.140;2023-05-29T09:27:34;100194.61;;;21.11;38.26
64460;BME280;50828;53.756;21.140;2023-05-29T09:32:46;100188.80;;;21.20;38.10
64460;BME280;50828;53.756;21.140;2023-05-29T09:38:02;100186.26;;;21.29;38.02
64460;BME280;50828;53.756;21.140;2023-05-29T09:43:13;100187.23;;;21.37;37.96
64460;BME280;50828;53.756;21.140;2023-05-29T09:48:24;100188.85;;;21.41;37.49
64460;BME280;50828;53.756;21.140;2023-05-29T09:53:34;100177.64;;;21.34;37.51
64460;BME280;50828;53.756;21.140;2023-05-29T09:58:50;100198.06;;;21.40;37.63
64460;BME280;50828;53.756;21.140;2023-05-29T10:03:59;100201.25;;;21.41;37.77
64460;BME280;50828;53.756;21.140;2023-05-29T10:09:09;100198.04;;;21.40;37.54
64460;BME280;50828;53.756;21.140;2023-05-29T10:14:20;100196.92;;;21.43;37.63
64460;BME280;50828;53.756;21.140;2023-05-29T10:19:31;100196.70;;;21.48;37.60
64460;BME280;50828;53.756;21.140;2023-05-29T10:24:40;100194.48;;;21.56;37.55
64460;BME280;50828;53.756;21.140;2023-05-29T10:29:52;100190.30;;;21.64;37.37
64460;BME280;50828;53.756;21.140;2023-05-29T10:35:12;100184.15;;;21.73;37.40
64460;BME280;50828;53.756;21.140;2023-05-29T10:40:26;100192.21;;;21.82;36.85
64460;BME280;50828;53.756;21.140;2023-05-29T10:45:53;100190.31;;;21.86;36.66
64460;BME280;50828;53.756;21.140;2023-05-29T10:51:04;100183.89;;;21.83;36.37
64460;BME280;50828;53.756;21.140;2023-05-29T10:56:27;100177.72;;;21.77;36.48
64460;BME280;50828;53.756;21.140;2023-05-29T11:01:37;100170.02;;;21.75;36.59
64460;BME280;50828;53.756;21.140;2023-05-29T11:06:46;100158.48;;;21.76;36.63
64460;BME280;50828;53.756;21.140;2023-05-29T11:12:14;100159.34;;;21.79;36.33
64460;BME280;50828;53.756;21.140;2023-05-29T11:17:45;100163.95;;;21.79;36.43
64460;BME280;50828;53.756;21.140;2023-05-29T11:23:03;100162.11;;;21.78;36.62
64460;BME280;50828;53.756;21.140;2023-05-29T11:28:15;100161.70;;;21.76;36.96
64460;BME280;50828;53.756;21.140;2023-05-29T11:33:29;100159.05;;;21.76;37.28
64460;BME280;50828;53.756;21.140;2023-05-29T11:38:39;100160.86;;;21.75;37.39
64460;BME280;50828;53.756;21.140;2023-05-29T11:43:58;100160.98;;;21.74;37.39
64460;BME280;50828;53.756;21.140;2023-05-29T11:49:08;100161.78;;;21.71;37.34
64460;BME280;50828;53.756;21.140;2023-05-29T11:54:21;100159.79;;;21.70;37.47
64460;BME280;50828;53.756;21.140;2023-05-29T11:59:31;100162.92;;;21.68;37.58
64460;BME280;50828;53.756;21.140;2023-05-29T12:04:39;100156.35;;;21.68;37.58
64460;BME280;50828;53.756;21.140;2023-05-29T12:09:47;100153.96;;;21.70;37.67
64460;BME280;50828;53.756;21.140;2023-05-29T12:14:57;100146.61;;;21.76;37.40
64460;BME280;50828;53.756;21.140;2023-05-29T12:20:07;100148.71;;;21.84;37.55
64460;BME280;50828;53.756;21.140;2023-05-29T12:25:19;100145.70;;;21.91;37.50
64460;BME280;50828;53.756;21.140;2023-05-29T12:30:28;100146.75;;;21.98;37.32
64460;BME280;50828;53.756;21.140;2023-05-29T12:35:40;100146.40;;;22.02;37.25
64460;BME280;50828;53.756;21.140;2023-05-29T12:40:55;100137.42;;;22.04;36.93
64460;BME280;50828;53.756;21.140;2023-05-29T12:46:03;100134.31;;;22.05;37.01
64460;BME280;50828;53.756;21.140;2023-05-29T12:51:13;100136.29;;;22.07;37.12
64460;BME280;50828;53.756;21.140;2023-05-29T12:56:20;100134.04;;;22.10;36.78
64460;BME280;50828;53.756;21.140;2023-05-29T13:01:29;100131.49;;;22.12;36.69
64460;BME280;50828;53.756;21.140;2023-05-29T13:06:38;100126.98;;;22.15;36.22
64460;BME280;50828;53.756;21.140;2023-05-29T13:11:47;100114.73;;;22.05;36.12
64460;BME280;50828;53.756;21.140;2023-05-29T13:16:55;100121.98;;;22.06;36.10
64460;BME280;50828;53.756;21.140;2023-05-29T13:22:04;100115.89;;;22.02;36.04
64460;BME280;50828;53.756;21.140;2023-05-29T13:27:14;100109.73;;;22.01;35.96
64460;BME280;50828;53.756;21.140;2023-05-29T13:32:21;100106.22;;;22.00;35.83
64460;BME280;50828;53.756;21.140;2023-05-29T13:37:30;100105.83;;;21.96;35.81
64460;BME280;50828;53.756;21.140;2023-05-29T13:42:39;100104.81;;;21.94;35.81
64460;BME280;50828;53.756;21.140;2023-05-29T13:47:48;100102.98;;;21.92;35.48
64460;BME280;50828;53.756;21.140;2023-05-29T13:52:57;100096.77;;;21.87;35.49
64460;BME280;50828;53.756;21.140;2023-05-29T13:58:05;100100.52;;;21.85;35.65
64460;BME280;50828;53.756;21.140;2023-05-29T14:03:14;100102.95;;;21.87;35.43
64460;BME280;50828;53.756;21.140;2023-05-29T14:08:22;100104.20;;;21.89;35.38
64460;BME280;50828;53.756;21.140;2023-05-29T14:13:31;100103.95;;;21.91;35.38
64460;BME280;50828;53.756;21.140;2023-05-29T14:18:40;100099.10;;;21.95;35.26
64460;BME280;50828;53.756;21.140;2023-05-29T14:23:48;100095.89;;;22.01;35.34
64460;BME280;50828;53.756;21.140;2023-05-29T14:28:59;100093.56;;;22.07;35.18
64460;BME280;50828;53.756;21.140;2023-05-29T14:34:19;100096.64;;;22.09;34.80
64460;BME280;50828;53.756;21.140;2023-05-29T14:39:28;100092.86;;;22.07;34.60
64460;BME280;50828;53.756;21.140;2023-05-29T14:44:36;100092.02;;;22.07;34.75
64460;BME280;50828;53.756;21.140;2023-05-29T14:49:45;100096.20;;;22.04;34.76
64460;BME280;50828;53.756;21.140;2023-05-29T14:54:52;100098.29;;;21.98;34.70
64460;BME280;50828;53.756;21.140;2023-05-29T15:00:00;100101.02;;;21.92;34.69
64460;BME280;50828;53.756;21.140;2023-05-29T15:05:09;100105.70;;;21.81;34.67
64460;BME280;50828;53.756;21.140;2023-05-29T15:10:17;100108.33;;;21.72;34.75
64460;BME280;50828;53.756;21.140;2023-05-29T15:15:27;100103.34;;;21.63;34.97
64460;BME280;50828;53.756;21.140;2023-05-29T15:20:52;100102.13;;;21.59;34.93
64460;BME280;50828;53.756;21.140;2023-05-29T15:26:00;100098.00;;;21.55;35.14
64460;BME280;50828;53.756;21.140;2023-05-29T15:31:09;100098.89;;;21.50;35.21
64460;BME280;50828;53.756;21.140;2023-05-29T15:36:18;100106.55;;;21.49;35.12
64460;BME280;50828;53.756;21.140;2023-05-29T15:41:27;100109.77;;;21.47;35.07
64460;BME280;50828;53.756;21.140;2023-05-29T15:46:35;100111.39;;;21.46;35.07
64460;BME280;50828;53.756;21.140;2023-05-29T15:51:43;100110.33;;;21.44;35.05
64460;BME280;50828;53.756;21.140;2023-05-29T15:56:52;100110.52;;;21.37;35.07
64460;BME280;50828;53.756;21.140;2023-05-29T16:02:00;100108.44;;;21.33;35.12
64460;BME280;50828;53.756;21.140;2023-05-29T16:07:09;100102.69;;;21.24;35.14
64460;BME280;50828;53.756;21.140;2023-05-29T16:12:18;100104.30;;;21.16;35.06
64460;BME280;50828;53.756;21.140;2023-05-29T16:17:27;100108.19;;;21.10;35.18
64460;BME280;50828;53.756;21.140;2023-05-29T16:22:35;100109.89;;;21.03;35.02
64460;BME280;50828;53.756;21.140;2023-05-29T16:27:47;100107.73;;;20.94;34.94
64460;BME280;50828;53.756;21.140;2023-05-29T16:32:54;100106.63;;;20.86;35.01
64460;BME280;50828;53.756;21.140;2023-05-29T16:38:02;100116.00;;;20.79;34.94
64460;BME280;50828;53.756;21.140;2023-05-29T16:43:11;100119.58;;;20.72;34.75
64460;BME280;50828;53.756;21.140;2023-05-29T16:48:19;100121.45;;;20.65;34.69
64460;BME280;50828;53.756;21.140;2023-05-29T16:53:27;100129.56;;;20.57;34.47
64460;BME280;50828;53.756;21.140;2023-05-29T16:58:34;100134.02;;;20.48;33.98
64460;BME280;50828;53.756;21.140;2023-05-29T17:03:42;100130.89;;;20.36;33.72
64460;BME280;50828;53.756;21.140;2023-05-29T17:08:50;100134.28;;;20.25;33.53
64460;BME280;50828;53.756;21.140;2023-05-29T17:13:59;100129.04;;;20.12;33.02
64460;BME280;50828;53.756;21.140;2023-05-29T17:19:06;100129.98;;;20.01;32.83
64460;BME280;50828;53.756;21.140;2023-05-29T17:24:14;100131.02;;;19.87;32.82
64460;BME280;50828;53.756;21.140;2023-05-29T17:29:28;100127.69;;;19.72;32.62
64460;BME280;50828;53.756;21.140;2023-05-29T17:34:36;100133.85;;;19.62;32.74
64460;BME280;50828;53.756;21.140;2023-05-29T17:39:44;100132.05;;;19.51;32.83
64460;BME280;50828;53.756;21.140;2023-05-29T17:44:52;100129.41;;;19.38;32.95
64460;BME280;50828;53.756;21.140;2023-05-29T17:50:00;100126.73;;;19.27;32.86
64460;BME280;50828;53.756;21.140;2023-05-29T17:55:09;100129.73;;;19.15;33.02
64460;BME280;50828;53.756;21.140;2023-05-29T18:00:19;100136.95;;;19.02;33.40
64460;BME280;50828;53.756;21.140;2023-05-29T18:05:27;100140.94;;;18.90;33.64
64460;BME280;50828;53.756;21.140;2023-05-29T18:10:35;100144.33;;;18.77;34.19
64460;BME280;50828;53.756;21.140;2023-05-29T18:15:43;100145.63;;;18.67;34.75
64460;BME280;50828;53.756;21.140;2023-05-29T18:20:51;100145.83;;;18.54;35.26
64460;BME280;50828;53.756;21.140;2023-05-29T18:26:00;100143.80;;;18.40;35.55
64460;BME280;50828;53.756;21.140;2023-05-29T18:31:09;100148.36;;;18.27;35.59
64460;BME280;50828;53.756;21.140;2023-05-29T18:36:18;100155.08;;;18.12;35.58
64460;BME280;50828;53.756;21.140;2023-05-29T18:41:26;100155.86;;;17.99;35.92
64460;BME280;50828;53.756;21.140;2023-05-29T18:46:34;100156.52;;;17.84;35.88
64460;BME280;50828;53.756;21.140;2023-05-29T18:51:43;100162.98;;;17.70;36.47
64460;BME280;50828;53.756;21.140;2023-05-29T18:56:52;100164.22;;;17.55;36.76
64460;BME280;50828;53.756;21.140;2023-05-29T19:02:00;100167.82;;;17.38;37.17
64460;BME280;50828;53.756;21.140;2023-05-29T19:07:08;100173.33;;;17.20;37.50
64460;BME280;50828;53.756;21.140;2023-05-29T19:12:15;100181.01;;;17.00;37.64
64460;BME280;50828;53.756;21.140;2023-05-29T19:17:23;100178.75;;;16.80;37.42
64460;BME280;50828;53.756;21.140;2023-05-29T19:22:32;100175.05;;;16.63;37.35
64460;BME280;50828;53.756;21.140;2023-05-29T19:27:40;100171.89;;;16.48;37.65
64460;BME280;50828;53.756;21.140;2023-05-29T19:32:50;100178.69;;;16.34;38.04
64460;BME280;50828;53.756;21.140;2023-05-29T19:37:58;100187.33;;;16.18;38.23
64460;BME280;50828;53.756;21.140;2023-05-29T19:43:07;100187.91;;;16.02;38.24
64460;BME280;50828;53.756;21.140;2023-05-29T19:48:15;100189.81;;;15.86;38.31
64460;BME280;50828;53.756;21.140;2023-05-29T19:53:24;100192.67;;;15.71;38.52
64460;BME280;50828;53.756;21.140;2023-05-29T19:58:31;100196.77;;;15.58;38.80
64460;BME280;50828;53.756;21.140;2023-05-29T20:03:39;100199.55;;;15.44;39.05
64460;BME280;50828;53.756;21.140;2023-05-29T20:08:48;100201.90;;;15.31;39.58
64460;BME280;50828;53.756;21.140;2023-05-29T20:13:57;100202.16;;;15.18;39.86
64460;BME280;50828;53.756;21.140;2023-05-29T20:19:06;100209.31;;;15.04;40.10
64460;BME280;50828;53.756;21.140;2023-05-29T20:24:15;100209.02;;;14.87;40.35
64460;BME280;50828;53.756;21.140;2023-05-29T20:29:23;100214.56;;;14.74;40.59
64460;BME280;50828;53.756;21.140;2023-05-29T20:34:31;100212.55;;;14.55;40.67
64460;BME280;50828;53.756;21.140;2023-05-29T20:39:40;100210.58;;;14.36;40.72
64460;BME280;50828;53.756;21.140;2023-05-29T20:44:50;100215.09;;;14.18;41.07
64460;BME280;50828;53.756;21.140;2023-05-29T20:49:59;100208.13;;;13.96;41.16
64460;BME280;50828;53.756;21.140;2023-05-29T20:55:10;100215.94;;;13.75;41.32
64460;BME280;50828;53.756;21.140;2023-05-29T21:00:19;100222.40;;;13.52;41.78
64460;BME280;50828;53.756;21.140;2023-05-29T21:05:28;100220.30;;;13.30;42.04
64460;BME280;50828;53.756;21.140;2023-05-29T21:10:36;100221.89;;;13.08;42.04
64460;BME280;50828;53.756;21.140;2023-05-29T21:15:44;100221.20;;;12.86;43.03
64460;BME280;50828;53.756;21.140;2023-05-29T21:20:53;100223.46;;;12.68;43.28
64460;BME280;50828;53.756;21.140;2023-05-29T21:26:01;100222.67;;;12.51;43.49
64460;BME280;50828;53.756;21.140;2023-05-29T21:31:09;100215.72;;;12.33;43.67
64460;BME280;50828;53.756;21.140;2023-05-29T21:36:19;100208.13;;;12.13;43.51
64460;BME280;50828;53.756;21.140;2023-05-29T21:41:27;100211.52;;;11.97;43.59
64460;BME280;50828;53.756;21.140;2023-05-29T21:46:37;100215.34;;;11.77;44.05
64460;BME280;50828;53.756;21.140;2023-05-29T21:51:48;100213.60;;;11.56;44.09
64460;BME280;50828;53.756;21.140;2023-05-29T21:56:58;100217.09;;;11.40;44.68
64460;BME280;50828;53.756;21.140;2023-05-29T22:02:09;100220.48;;;11.23;44.78
64460;BME280;50828;53.756;21.140;2023-05-29T22:07:18;100218.12;;;11.07;45.28
64460;BME280;50828;53.756;21.140;2023-05-29T22:12:29;100223.23;;;10.93;46.22
64460;BME280;50828;53.756;21.140;2023-05-29T22:17:38;100217.46;;;10.83;46.72
64460;BME280;50828;53.756;21.140;2023-05-29T22:22:47;100217.97;;;10.75;47.14
64460;BME280;50828;53.756;21.140;2023-05-29T22:27:59;100215.94;;;10.68;47.12
64460;BME280;50828;53.756;21.140;2023-05-29T22:33:07;100218.86;;;10.61;47.49
64460;BME280;50828;53.756;21.140;2023-05-29T22:38:18;100226.86;;;10.55;48.14
64460;BME280;50828;53.756;21.140;2023-05-29T22:43:27;100222.94;;;10.47;48.59
64460;BME280;50828;53.756;21.140;2023-05-29T22:48:35;100223.29;;;10.42;48.70
64460;BME280;50828;53.756;21.140;2023-05-29T22:53:46;100221.76;;;10.31;48.39
64460;BME280;50828;53.756;21.140;2023-05-29T22:58:56;100225.05;;;10.22;48.07
64460;BME280;50828;53.756;21.140;2023-05-29T23:04:05;100222.67;;;10.10;48.38
64460;BME280;50828;53.756;21.140;2023-05-29T23:09:14;100218.59;;;9.96;48.16
64460;BME280;50828;53.756;21.140;2023-05-29T23:14:22;100222.86;;;9.80;47.70
64460;BME280;50828;53.756;21.140;2023-05-29T23:19:30;100225.04;;;9.63;47.47
64460;BME280;50828;53.756;21.140;2023-05-29T23:24:38;100232.52;;;9.45;47.48
64460;BME280;50828;53.756;21.140;2023-05-29T23:29:47;100230.70;;;9.25;47.48
64460;BME280;50828;53.756;21.140;2023-05-29T23:34:55;100229.60;;;9.05;47.62
64460;BME280;50828;53.756;21.140;2023-05-29T23:40:05;100231.63;;;8.85;47.64
64460;BME280;50828;53.756;21.140;2023-05-29T23:45:14;100241.05;;;8.70;47.43
64460;BME280;50828;53.756;21.140;2023-05-29T23:50:23;100235.80;;;8.52;48.02
64460;BME280;50828;53.756;21.140;2023-05-29T23:55:34;100235.52;;;8.37;48.71
